createdAt,value
2023-01-15T00:00:52.771Z,-0.82
2023-01-15T00:03:58.159Z,-0.81
2023-01-15T00:07:00.907Z,-0.74
2023-01-15T00:10:04.316Z,-1.09
2023-01-15T00:13:08.290Z,-0.83
2023-01-15T00:16:19.022Z,-0.85
2023-01-15T00:19:21.717Z,-1.13
2023-01-15T00:22:24.781Z,-1.04
2023-01-15T00:25:46.327Z,-1.01
2023-01-15T00:28:49.369Z,-0.97
2023-01-15T00:32:02.000Z,-1.02
2023-01-15T00:35:06.853Z,-1.10
2023-01-15T00:38:09.554Z,-1.19
2023-01-15T00:41:13.419Z,-1.06
2023-01-15T00:44:16.869Z,-1.11
2023-01-15T00:47:19.981Z,-1.03
2023-01-15T00:50:25.222Z,-1.12
2023-01-15T00:53:28.225Z,-1.24
2023-01-15T00:56:31.135Z,-1.32
2023-01-15T00:59:34.346Z,-1.26
2023-01-15T01:02:37.555Z,-0.94
2023-01-15T01:05:42.679Z,-0.80
2023-01-15T01:08:46.220Z,-0.72
2023-01-15T01:11:50.606Z,-0.54
2023-01-15T01:14:53.372Z,-0.53
2023-01-15T01:17:56.471Z,-0.82
2023-01-15T01:20:59.972Z,-1.00
2023-01-15T01:24:03.359Z,-0.98
2023-01-15T01:27:06.291Z,-1.04
2023-01-15T01:30:10.595Z,-0.86
2023-01-15T01:33:13.732Z,-1.01
2023-01-15T01:36:17.144Z,-1.22
2023-01-15T01:39:20.099Z,-1.16
2023-01-15T01:42:23.804Z,-1.17
2023-01-15T01:45:33.961Z,-1.20
2023-01-15T01:48:37.483Z,-1.22
2023-01-15T01:51:50.750Z,-1.31
2023-01-15T01:54:54.253Z,-1.26
2023-01-15T01:58:01.002Z,-1.33
2023-01-15T02:01:05.916Z,-1.31
2023-01-15T02:04:11.781Z,-1.51
2023-01-15T02:07:14.995Z,-1.39
2023-01-15T02:10:18.602Z,-1.34
2023-01-15T02:13:31.197Z,-1.56
2023-01-15T02:16:57.553Z,-1.36
2023-01-15T02:20:21.989Z,-1.26
2023-01-15T02:23:37.574Z,-1.26
2023-01-15T02:27:05.248Z,-1.25
2023-01-15T02:30:14.346Z,-1.45
2023-01-15T02:33:24.653Z,-1.57
2023-01-15T02:36:32.935Z,-1.64
2023-01-15T02:39:40.767Z,-1.63
2023-01-15T02:42:48.998Z,-1.56
2023-01-15T02:45:56.212Z,-1.58
2023-01-15T02:49:02.936Z,-1.53
2023-01-15T02:52:15.268Z,-1.47
2023-01-15T02:55:30.442Z,-1.52
2023-01-15T02:58:37.560Z,-1.61
2023-01-15T03:01:45.543Z,-1.41
2023-01-15T03:04:53.007Z,-1.53
2023-01-15T03:08:02.649Z,-1.48
2023-01-15T03:11:21.660Z,-1.35
2023-01-15T03:14:42.231Z,-1.29
2023-01-15T03:17:56.093Z,-1.33
2023-01-15T03:21:05.920Z,-1.24
2023-01-15T03:24:11.574Z,-1.12
2023-01-15T03:27:15.705Z,-1.22
2023-01-15T03:30:22.663Z,-1.40
2023-01-15T03:33:28.104Z,-1.24
2023-01-15T03:36:32.572Z,-1.41
2023-01-15T03:39:36.860Z,-1.37
2023-01-15T03:42:48.457Z,-1.38
2023-01-15T03:45:54.850Z,-1.40
2023-01-15T03:49:07.298Z,-1.15
2023-01-15T03:52:20.263Z,-1.26
2023-01-15T03:55:49.875Z,-1.11
2023-01-15T03:59:06.827Z,-1.08
2023-01-15T04:02:14.922Z,-0.93
2023-01-15T04:05:18.631Z,-1.08
2023-01-15T04:08:23.103Z,-0.98
2023-01-15T04:11:27.783Z,-1.02
2023-01-15T04:14:31.352Z,-1.07
2023-01-15T04:17:34.545Z,-0.99
2023-01-15T04:20:39.572Z,-0.93
2023-01-15T04:23:43.691Z,-1.10
2023-01-15T04:26:46.494Z,-0.98
2023-01-15T04:29:49.548Z,-0.91
2023-01-15T04:32:52.950Z,-0.84
2023-01-15T04:35:58.835Z,-0.92
2023-01-15T04:39:03.036Z,-0.91
2023-01-15T04:42:25.018Z,-0.98
2023-01-15T04:45:28.659Z,-0.87
2023-01-15T04:48:31.894Z,-0.90
2023-01-15T04:51:34.714Z,-0.84
2023-01-15T04:54:39.138Z,-0.82
2023-01-15T04:57:41.907Z,-0.78
2023-01-15T05:00:51.667Z,-0.97
2023-01-15T05:03:55.112Z,-0.89
2023-01-15T05:06:58.252Z,-0.91
2023-01-15T05:10:00.939Z,-0.90
2023-01-15T05:13:04.037Z,-0.75
2023-01-15T05:16:13.598Z,-0.67
2023-01-15T05:19:16.870Z,-0.63
2023-01-15T05:22:19.792Z,-0.75
2023-01-15T05:25:23.275Z,-0.71
2023-01-15T05:28:26.242Z,-0.74
2023-01-15T05:31:30.916Z,-0.68
2023-01-15T05:34:33.577Z,-0.63
2023-01-15T05:37:36.747Z,-0.72
2023-01-15T05:40:41.059Z,-0.82
2023-01-15T05:43:44.030Z,-0.76
2023-01-15T05:46:47.644Z,-0.75
2023-01-15T05:49:50.678Z,-0.81
2023-01-15T05:52:53.451Z,-0.82
2023-01-15T05:55:56.479Z,-0.69
2023-01-15T05:58:59.182Z,-0.91
2023-01-15T06:02:02.335Z,-0.78
2023-01-15T06:05:05.929Z,-0.70
2023-01-15T06:08:08.976Z,-0.74
2023-01-15T06:11:13.117Z,-0.57
2023-01-15T06:14:16.303Z,-0.58
2023-01-15T06:17:19.303Z,-0.62
2023-01-15T06:20:22.975Z,-0.54
2023-01-15T06:23:26.027Z,-0.50
2023-01-15T06:26:28.779Z,-0.44
2023-01-15T06:29:32.003Z,-0.45
2023-01-15T06:32:34.679Z,-0.53
2023-01-15T06:35:37.862Z,-0.40
2023-01-15T06:38:41.321Z,-0.35
2023-01-15T06:42:02.979Z,-0.22
2023-01-15T06:45:24.661Z,-0.29
2023-01-15T06:48:28.171Z,-0.25
2023-01-15T06:51:31.575Z,-0.40
2023-01-15T06:54:35.322Z,-0.35
2023-01-15T06:57:39.947Z,-0.38
2023-01-15T07:00:45.366Z,-0.09
2023-01-15T07:03:48.589Z,-0.28
2023-01-15T07:06:52.036Z,-0.20
2023-01-15T07:09:55.197Z,-0.18
2023-01-15T07:12:58.378Z,-0.06
2023-01-15T07:16:02.826Z,-0.08
2023-01-15T07:19:06.526Z,-0.01
2023-01-15T07:22:10.839Z,-0.12
2023-01-15T07:25:34.333Z,-0.04
2023-01-15T07:28:37.217Z,0.06
2023-01-15T07:31:43.197Z,0.20
2023-01-15T07:34:48.990Z,0.14
2023-01-15T07:37:54.974Z,0.24
2023-01-15T07:41:56.722Z,0.11
2023-01-15T07:45:46.709Z,0.34
2023-01-15T07:49:42.414Z,0.44
2023-01-15T07:53:18.381Z,0.39
2023-01-15T07:56:56.292Z,0.56
2023-01-15T08:00:25.625Z,0.50
2023-01-15T08:04:00.473Z,0.43
2023-01-15T08:07:41.649Z,0.60
2023-01-15T08:11:34.834Z,0.86
2023-01-15T08:15:16.732Z,1.16
2023-01-15T08:18:42.283Z,1.32
2023-01-15T08:21:46.535Z,1.77
2023-01-15T08:24:50.291Z,1.72
2023-01-15T08:58:30.407Z,1.36
2023-01-15T09:02:15.021Z,1.45
2023-01-15T09:05:38.715Z,1.53
2023-01-15T09:08:47.147Z,1.74
2023-01-15T09:12:09.880Z,1.96
2023-01-15T09:15:14.346Z,1.96
2023-01-15T09:18:19.423Z,2.19
2023-01-15T09:21:43.979Z,2.39
2023-01-15T09:25:04.780Z,2.82
2023-01-15T09:28:10.485Z,2.80
2023-01-15T09:31:47.481Z,2.99
2023-01-15T09:35:16.150Z,3.11
2023-01-15T09:38:21.709Z,3.54
2023-01-15T09:41:49.711Z,3.53
2023-01-15T09:45:23.708Z,3.46
2023-01-15T09:48:52.203Z,3.87
2023-01-15T09:52:22.868Z,3.79
2023-01-15T10:18:48.679Z,4.08
2023-01-15T10:23:16.428Z,4.26
2023-01-15T10:30:48.481Z,4.48
2023-01-15T10:34:52.812Z,4.49
2023-01-15T10:38:10.107Z,4.47
2023-01-15T10:42:06.991Z,4.21
2023-01-15T10:45:20.620Z,4.29
2023-01-15T10:49:00.123Z,4.30
2023-01-15T10:52:57.357Z,4.33
2023-01-15T11:08:45.129Z,4.70
2023-01-15T11:11:49.779Z,4.72
2023-01-15T11:15:11.273Z,4.58
2023-01-15T11:18:47.371Z,4.68
2023-01-15T11:21:52.889Z,4.63
2023-01-15T11:25:32.386Z,4.56
2023-01-15T11:29:33.984Z,4.73
2023-01-15T11:33:23.667Z,4.68
2023-01-15T11:36:29.213Z,4.89
2023-01-15T11:39:33.154Z,4.67
2023-01-15T11:43:15.217Z,4.63
2023-01-15T11:46:50.034Z,4.80
2023-01-15T11:50:44.613Z,4.73
2023-01-15T11:54:20.122Z,4.69
2023-01-15T12:05:26.250Z,4.79
2023-01-15T12:09:26.794Z,4.75
2023-01-15T12:13:15.221Z,4.94
2023-01-15T12:17:16.871Z,5.06
2023-01-15T12:21:44.445Z,5.06
2023-01-15T12:25:34.478Z,5.15
2023-01-15T12:29:30.649Z,5.35
2023-01-15T12:32:41.915Z,5.43
2023-01-15T12:35:56.413Z,5.31
2023-01-15T12:39:28.473Z,5.37
2023-01-15T12:42:52.843Z,5.60
2023-01-15T12:46:00.771Z,5.47
2023-01-15T12:49:35.717Z,5.44
2023-01-15T12:52:43.622Z,5.57
2023-01-15T12:55:57.798Z,5.54
2023-01-15T12:59:30.077Z,5.75
2023-01-15T13:02:46.409Z,5.64
2023-01-15T13:05:56.529Z,5.76
2023-01-15T13:09:27.723Z,5.66
2023-01-15T13:12:31.146Z,5.66
2023-01-15T13:15:42.442Z,5.56
2023-01-15T13:18:52.001Z,5.50
2023-01-15T13:22:00.321Z,5.42
2023-01-15T13:25:24.834Z,5.40
2023-01-15T13:29:13.020Z,5.27
2023-01-15T13:36:46.282Z,5.32
2023-01-15T13:39:51.683Z,5.41
2023-01-15T13:42:56.424Z,5.38
2023-01-15T13:46:00.701Z,5.33
2023-01-15T13:49:05.600Z,5.37
2023-01-15T13:52:31.848Z,5.38
2023-01-15T13:56:02.608Z,5.36
2023-01-15T13:59:27.164Z,5.33
2023-01-15T14:02:34.882Z,5.26
2023-01-15T14:05:39.515Z,5.31
2023-01-15T14:09:02.256Z,5.30
2023-01-15T14:12:36.330Z,5.25
2023-01-15T14:16:18.224Z,5.21
2023-01-15T14:20:03.272Z,5.21
2023-01-15T14:23:15.214Z,5.24
2023-01-15T14:26:44.442Z,5.22
2023-01-15T14:29:48.014Z,5.20
2023-01-15T14:33:15.186Z,5.18
2023-01-15T14:36:29.582Z,5.14
2023-01-15T14:39:32.724Z,5.17
2023-01-15T14:42:59.418Z,5.15
2023-01-15T14:46:20.707Z,5.22
2023-01-15T14:49:32.115Z,5.13
2023-01-15T14:53:03.926Z,5.08
2023-01-15T14:56:30.353Z,5.00
2023-01-15T15:00:18.640Z,5.01
2023-01-15T15:03:33.334Z,4.92
2023-01-15T15:06:55.399Z,4.95
2023-01-15T15:10:32.540Z,5.10
2023-01-15T15:13:56.927Z,4.90
2023-01-15T15:17:02.596Z,4.88
2023-01-15T15:20:22.456Z,4.95
2023-01-15T15:23:40.057Z,4.88
2023-01-15T15:27:23.652Z,4.95
2023-01-15T15:30:34.959Z,4.88
2023-01-15T15:34:01.412Z,4.84
2023-01-15T15:37:27.280Z,4.95
2023-01-15T15:40:56.935Z,4.87
2023-01-15T15:44:21.982Z,4.86
2023-01-15T15:47:45.986Z,4.84
2023-01-15T15:51:24.132Z,4.88
2023-01-15T15:55:01.570Z,4.80
2023-01-15T15:58:05.428Z,4.77
2023-01-15T16:01:17.434Z,4.77
2023-01-15T16:04:21.641Z,4.89
2023-01-15T16:07:37.508Z,4.84
2023-01-15T16:10:41.236Z,4.78
2023-01-15T16:13:53.839Z,4.77
2023-01-15T16:16:59.006Z,4.90
2023-01-15T16:20:02.486Z,4.95
2023-01-15T16:23:06.061Z,5.00
2023-01-15T16:26:19.707Z,5.06
2023-01-15T16:29:34.409Z,5.15
2023-01-15T16:32:40.524Z,4.86
2023-01-15T16:36:06.310Z,5.01
2023-01-15T16:39:21.275Z,4.78
2023-01-15T16:42:33.916Z,4.90
2023-01-15T16:45:58.399Z,4.58
2023-01-15T16:49:23.725Z,4.73
2023-01-15T16:53:00.416Z,4.90
2023-01-15T16:56:04.837Z,4.81
2023-01-15T16:59:40.704Z,4.76
2023-01-15T17:02:46.598Z,4.89
2023-01-15T17:05:53.380Z,4.93
2023-01-15T17:08:59.000Z,4.88
2023-01-15T17:12:22.390Z,4.79
2023-01-15T17:15:25.770Z,4.89
2023-01-15T17:18:50.414Z,4.95
2023-01-15T17:21:54.560Z,4.89
2023-01-15T17:25:00.032Z,4.82
2023-01-15T17:28:05.014Z,4.97
2023-01-15T17:31:39.073Z,5.00
2023-01-15T17:39:01.049Z,4.92
2023-01-15T17:42:23.698Z,4.91
2023-01-15T17:45:32.889Z,4.99
2023-01-15T18:37:55.077Z,4.55
2023-01-15T18:41:38.105Z,4.53
2023-01-15T18:45:19.854Z,4.51
2023-01-15T18:48:37.779Z,4.46
2023-01-15T18:51:40.894Z,4.43
2023-01-15T18:54:44.154Z,4.46
2023-01-15T18:58:17.974Z,4.48
2023-01-15T19:01:25.428Z,4.49
2023-01-15T19:04:48.417Z,4.49
2023-01-15T19:07:52.235Z,4.57
2023-01-15T19:10:55.312Z,4.47
2023-01-15T19:14:17.690Z,4.46
2023-01-15T19:17:44.015Z,4.43
2023-01-15T19:20:48.639Z,4.47
2023-01-15T19:23:52.718Z,4.55
2023-01-15T19:26:56.277Z,4.44
2023-01-15T19:30:00.628Z,4.55
2023-01-15T19:33:06.105Z,4.60
2023-01-15T19:36:29.281Z,4.40
2023-01-15T19:39:42.042Z,4.29
2023-01-15T19:43:04.401Z,4.25
2023-01-15T19:46:28.369Z,4.26
2023-01-15T19:49:54.974Z,4.24
2023-01-15T19:52:58.021Z,4.29
2023-01-15T19:56:00.851Z,4.44
2023-01-15T19:59:04.621Z,4.27
2023-01-15T20:02:07.674Z,4.49
2023-01-15T20:05:13.213Z,4.32
2023-01-15T20:08:19.247Z,4.34
2023-01-15T20:11:22.620Z,4.37
2023-01-15T20:14:29.426Z,4.28
2023-01-15T20:17:32.665Z,4.25
2023-01-15T20:20:35.842Z,4.28
2023-01-15T20:23:40.165Z,4.22
2023-01-15T20:26:43.143Z,4.21
2023-01-15T20:29:49.619Z,4.23
2023-01-15T20:32:54.788Z,4.19
2023-01-15T20:36:02.368Z,4.22
2023-01-15T20:39:05.573Z,4.23
2023-01-15T20:42:29.350Z,4.23
2023-01-15T20:45:32.677Z,4.24
2023-01-15T20:48:54.942Z,4.18
2023-01-15T20:51:58.498Z,4.19
2023-01-15T20:55:02.781Z,4.21
2023-01-15T20:58:07.137Z,4.09
2023-01-15T21:01:11.198Z,4.07
2023-01-15T21:04:14.364Z,4.06
2023-01-15T21:07:17.665Z,4.03
2023-01-15T21:10:22.995Z,3.98
2023-01-15T21:13:26.310Z,4.06
2023-01-15T21:16:29.491Z,4.17
2023-01-15T21:19:32.789Z,4.10
2023-01-15T21:22:35.700Z,4.00
2023-01-15T21:25:39.012Z,3.97
2023-01-15T21:28:42.369Z,4.04
2023-01-15T21:31:45.999Z,4.02
2023-01-15T21:34:49.136Z,4.05
2023-01-15T21:37:52.254Z,4.06
2023-01-15T21:40:55.135Z,4.07
2023-01-15T21:44:16.753Z,4.08
2023-01-15T21:47:19.852Z,4.01
2023-01-15T21:50:23.075Z,4.07
2023-01-15T21:53:25.843Z,4.07
2023-01-15T21:56:28.905Z,4.04
2023-01-15T21:59:32.397Z,3.91
2023-01-15T22:02:36.960Z,3.86
2023-01-15T22:05:40.008Z,3.84
2023-01-15T22:08:42.713Z,3.83
2023-01-15T22:11:46.456Z,3.81
2023-01-15T22:14:49.717Z,3.82
2023-01-15T22:17:54.316Z,3.78
2023-01-15T22:20:58.667Z,3.71
2023-01-15T22:24:05.274Z,3.73
2023-01-15T22:27:13.510Z,3.73
2023-01-15T22:30:16.835Z,3.71
2023-01-15T22:33:19.571Z,3.86
2023-01-15T22:36:24.133Z,3.66
2023-01-15T22:39:27.371Z,3.61
2023-01-15T22:42:33.004Z,3.58
2023-01-15T22:45:35.938Z,3.63
2023-01-15T22:48:39.830Z,3.59
2023-01-15T22:51:44.891Z,3.57
2023-01-15T22:54:47.927Z,3.67
2023-01-15T22:57:50.711Z,3.55
2023-01-15T23:00:55.988Z,3.70
2023-01-15T23:03:59.541Z,3.84
2023-01-15T23:07:02.787Z,3.49
2023-01-15T23:10:07.513Z,3.41
2023-01-15T23:13:11.332Z,3.46
2023-01-15T23:16:14.171Z,3.47
2023-01-15T23:19:18.460Z,3.26
2023-01-15T23:22:21.818Z,3.31
2023-01-15T23:25:24.808Z,3.38
2023-01-15T23:28:27.560Z,3.47
2023-01-15T23:31:30.728Z,3.55
2023-01-15T23:34:33.460Z,3.63
2023-01-15T23:37:36.603Z,3.59
2023-01-15T23:40:40.805Z,3.60
2023-01-15T23:44:02.826Z,3.63
2023-01-15T23:47:08.936Z,3.68
2023-01-15T23:50:11.982Z,3.75
2023-01-15T23:53:14.847Z,3.79
2023-01-15T23:56:18.323Z,3.78
2023-01-15T23:59:21.163Z,3.92
